KEMP/EMP METAR and TAF weather

Enter ICAO airport designator
Station Type Date Time Source
KEMP METAR 2019/06/26 21:53 UTC NOAA

KEMP 262153Z AUTO 15010KT 10SM SCT041 BKN048 31/24 A3002 RMK AO2 SLP154 T03110239


Station Type Date Time Source
KEMP Decoded METAR 2019/06/26 21:53 UTC NOAA

EMPORIA MUNICIPAL AIRPORT, KS, United States (KEMP) 38-20N 96-12W 367M
Jun 26, 2019 - 05:53 PM EDT / 2019.06.26 2153 UTC
Wind: from the SSE (150 degrees) at 12 MPH (10 KT):0
Visibility: 10 mile(s):0
Sky conditions: mostly cloudy
Temperature: 88.0 F (31.1 C)
Heat index: 97.5 F (36.4 C):1
Dew Point: 75.0 F (23.9 C)
Relative Humidity: 65%
Pressure (altimeter): 30.02 in. Hg (1016 hPa)
ob: KEMP 262153Z AUTO 15010KT 10SM SCT041 BKN048 31/24 A3002 RMK AO2 SLP154 T03110239
cycle: 22

Station Type Date Time Source
KEMP TAF UTC NOAA

Error!

Example: see airport list